Time;durP1;ratioP1;P1;durP2;ratioP2;P2;SDS_P1;SDS_P2;PMS_P1;PMS_P2;Temp;Humidity;BMP_temperature;BMP_pressure;BME280_temperature;BME280_humidity;BME280_pressure;Samples;Min_cycle;Max_cycle;Signal;HPM_P1;HPM_P2
2022/01/13 00:01:20;;;;;;;258.50;44.97;;;4.50;99.90;;;;;;5013438;28;20469;-94
2022/01/13 00:03:47;;;;;;;391.38;49.05;;;4.50;99.90;;;;;;5033452;28;20555;-93
2022/01/13 00:06:12;;;;;;;340.38;44.95;;;4.50;99.90;;;;;;5014108;28;20097;-94
2022/01/13 00:08:41;;;;;;;442.40;52.17;;;4.40;99.90;;;;;;5010947;28;20805;-92
2022/01/13 00:11:07;;;;;;;384.92;51.05;;;4.50;99.90;;;;;;5011120;28;20050;-92
2022/01/13 00:13:46;;;;;;;277.05;46.67;;;4.50;99.90;;;;;;5023457;28;20447;-94
2022/01/13 00:19:06;;;;;;;255.95;42.85;;;4.50;99.90;;;;;;5046644;28;20051;-92
2022/01/13 00:21:38;;;;;;;266.42;45.50;;;4.50;99.90;;;;;;5003256;28;20309;-92
2022/01/13 00:24:06;;;;;;;216.93;42.90;;;4.40;99.90;;;;;;4998088;28;20043;-92
2022/01/13 00:26:35;;;;;;;252.43;46.55;;;4.50;99.90;;;;;;5005374;28;20035;-91
2022/01/13 00:29:02;;;;;;;315.55;45.22;;;4.60;99.90;;;;;;5004583;28;20051;-94
2022/01/13 00:31:52;;;;;;;282.60;44.70;;;4.50;99.90;;;;;;5005699;28;20526;-93
2022/01/13 00:34:20;;;;;;;395.30;45.85;;;4.50;99.90;;;;;;5013232;28;20829;-92
2022/01/13 00:36:46;;;;;;;354.98;47.33;;;4.50;99.90;;;;;;5030633;28;20706;-93
2022/01/13 00:39:14;;;;;;;446.15;47.40;;;4.50;99.90;;;;;;5001293;28;20081;-92
2022/01/13 00:41:42;;;;;;;332.98;47.05;;;4.50;99.90;;;;;;5011257;28;20820;-93
2022/01/13 00:44:08;;;;;;;321.67;43.13;;;4.60;99.90;;;;;;5006994;28;20096;-94
2022/01/13 00:46:43;;;;;;;299.70;41.30;;;4.60;99.90;;;;;;5013311;28;20051;-94
2022/01/13 00:49:19;;;;;;;382.50;49.03;;;4.60;99.90;;;;;;5022661;28;20489;-94
2022/01/13 00:51:47;;;;;;;289.92;45.20;;;4.60;99.90;;;;;;5005761;28;20048;-93
2022/01/13 00:54:14;;;;;;;260.35;42.03;;;4.60;99.90;;;;;;4996000;28;20063;-94
2022/01/13 00:56:41;;;;;;;237.15;40.78;;;4.60;99.90;;;;;;5007273;28;20511;-94
2022/01/13 00:59:24;;;;;;;390.15;42.97;;;4.60;99.90;;;;;;5001704;28;20306;-94
2022/01/13 01:01:54;;;;;;;306.92;42.40;;;4.60;99.90;;;;;;5027894;28;20252;-93
2022/01/13 01:04:39;;;;;;;398.80;43.80;;;4.70;99.90;;;;;;4999623;28;20139;-93
2022/01/13 01:07:05;;;;;;;263.23;42.70;;;4.60;99.90;;;;;;5024498;28;20322;-94
2022/01/13 01:09:47;;;;;;;385.10;44.95;;;4.70;99.90;;;;;;4997685;28;20811;-93
2022/01/13 01:12:26;;;;;;;392.70;41.40;;;4.70;99.90;;;;;;5013532;28;20052;-95
2022/01/13 01:14:57;;;;;;;282.00;42.65;;;4.70;99.90;;;;;;5009533;28;20431;-94
2022/01/13 01:17:23;;;;;;;424.15;45.60;;;4.60;99.90;;;;;;5012293;28;20043;-95
2022/01/13 01:19:51;;;;;;;395.50;47.00;;;4.70;99.90;;;;;;5014659;28;20277;-95
2022/01/13 01:25:06;;;;;;;257.67;40.30;;;4.70;99.90;;;;;;5010921;28;20070;-95
2022/01/13 01:28:01;;;;;;;333.25;43.78;;;4.70;99.90;;;;;;5012312;28;20202;-96
2022/01/13 01:30:40;;;;;;;497.77;43.47;;;4.70;99.90;;;;;;5011145;28;20047;-95
2022/01/13 01:33:44;;;;;;;254.13;39.33;;;4.70;99.90;;;;;;5013789;28;20134;-94
2022/01/13 01:36:16;;;;;;;422.73;43.20;;;4.70;99.90;;;;;;5013855;28;20070;-96
2022/01/13 01:38:57;;;;;;;278.25;38.85;;;4.70;99.90;;;;;;5028111;28;20501;-95
2022/01/13 01:41:26;;;;;;;260.63;40.92;;;4.80;99.90;;;;;;5034290;28;20369;-91
2022/01/13 01:44:36;;;;;;;315.83;42.03;;;4.70;99.90;;;;;;5013327;28;20044;-96
2022/01/13 01:47:08;;;;;;;306.13;40.45;;;4.70;99.90;;;;;;5009369;28;20073;-95
2022/01/13 01:49:40;;;;;;;399.83;41.92;;;4.80;99.90;;;;;;5026793;28;20838;-95
2022/01/13 01:52:11;;;;;;;440.65;44.78;;;4.70;99.90;;;;;;5011360;28;20846;-95
2022/01/13 01:55:01;;;;;;;;;;;;;;;;;;;;;
2022/01/13 01:57:30;;;;;;;527.72;44.03;;;4.80;99.90;;;;;;5032480;28;20052;-94
2022/01/13 01:59:59;;;;;;;306.38;40.40;;;4.80;99.90;;;;;;5017595;28;20100;-95
2022/01/13 02:02:33;;;;;;;301.45;41.85;;;4.80;99.90;;;;;;5005525;28;20135;-95
2022/01/13 02:05:13;;;;;;;259.60;40.25;;;4.80;99.90;;;;;;5014632;28;20448;-95
2022/01/13 02:07:44;;;;;;;326.98;41.60;;;4.80;99.90;;;;;;5020173;28;20151;-94
2022/01/13 02:10:24;;;;;;;308.80;40.53;;;4.80;99.90;;;;;;5015510;28;20866;-96
2022/01/13 02:16:16;;;;;;;;;;;;;;;;;;;;;
2022/01/13 02:19:29;;;;;;;;;;;;;;;;;;;;;
2022/01/13 02:34:06;;;;;;;298.08;36.75;;;4.90;99.90;;;;;;4899367;28;20046;-95
2022/01/13 02:45:31;;;;;;;;;;;;;;;;;;;;;
2022/01/13 03:04:37;;;;;;;;;;;;;;;;;;;;;
2022/01/13 03:07:32;;;;;;;513.45;40.15;;;4.70;99.90;;;;;;4837795;29;20039;-96
2022/01/13 03:15:10;;;;;;;;;;;;;;;;;;;;;
2022/01/13 03:18:05;;;;;;;541.78;41.97;;;4.70;99.90;;;;;;4840171;28;20069;-95
2022/01/13 03:40:10;;;;;;;536.28;41.47;;;4.90;99.90;;;;;;4875684;29;20131;-94
2022/01/13 03:47:15;;;;;;;;;;;;;;;;;;;;;
2022/01/13 03:50:49;;;;;;;;;;;;;;;;;;;;;
2022/01/13 03:54:28;;;;;;;423.15;39.80;;;4.90;99.90;;;;;;4852423;28;20218;-94
2022/01/13 04:16:04;;;;;;;443.83;38.95;;;4.90;99.90;;;;;;4963946;28;20530;-94
2022/01/13 04:26:08;;;;;;;305.90;38.83;;;4.90;99.90;;;;;;5003059;28;20051;-91
2022/01/13 04:33:13;;;;;;;243.75;36.13;;;4.80;99.90;;;;;;4956372;28;20766;-94
2022/01/13 04:40:43;;;;;;;245.02;33.50;;;4.80;99.90;;;;;;4988295;28;20106;-93
2022/01/13 04:43:49;;;;;;;;;;;;;;;;;;;;;
2022/01/13 04:47:28;;;;;;;404.27;37.22;;;4.80;99.90;;;;;;5001725;28;20055;-94
2022/01/13 04:50:47;;;;;;;;;;;;;;;;;;;;;
2022/01/13 05:01:41;;;;;;;221.93;32.35;;;4.80;99.90;;;;;;4925392;28;20120;-93
2022/01/13 05:05:56;;;;;;;439.63;38.20;;;4.80;99.90;;;;;;4880160;28;20043;-94
2022/01/13 05:08:52;;;;;;;236.73;33.85;;;4.70;99.90;;;;;;4918744;28;20274;-94
2022/01/13 05:15:30;;;;;;;239.93;36.05;;;4.70;99.90;;;;;;4975113;28;20048;-93
2022/01/13 05:21:43;;;;;;;354.65;35.70;;;4.70;99.90;;;;;;4998030;28;20491;-92
2022/01/13 05:24:18;;;;;;;268.50;35.22;;;4.70;99.90;;;;;;4997467;28;20052;-94
2022/01/13 05:26:53;;;;;;;264.60;34.70;;;4.80;99.90;;;;;;5009076;28;20056;-91
2022/01/13 05:29:25;;;;;;;252.55;33.10;;;4.70;99.90;;;;;;4994274;28;20155;-91
2022/01/13 05:32:03;;;;;;;206.48;33.45;;;4.80;99.90;;;;;;4985031;28;20312;-92
2022/01/13 05:34:51;;;;;;;218.23;33.15;;;4.70;99.90;;;;;;5009695;28;20782;-93
2022/01/13 05:37:27;;;;;;;303.45;37.08;;;4.80;99.90;;;;;;4995162;28;20509;-90
2022/01/13 05:40:26;;;;;;;247.52;34.97;;;4.70;99.90;;;;;;5011530;28;20077;-92
2022/01/13 05:42:57;;;;;;;375.30;36.88;;;4.70;99.90;;;;;;4985478;28;20079;-89
2022/01/13 05:45:47;;;;;;;318.08;33.03;;;4.70;99.90;;;;;;4977506;28;20586;-91
2022/01/13 05:48:17;;;;;;;342.60;37.08;;;4.70;99.90;;;;;;4976061;28;20129;-90
2022/01/13 05:50:46;;;;;;;212.02;34.72;;;4.70;99.90;;;;;;4981459;28;20163;-94
2022/01/13 05:53:17;;;;;;;213.77;34.28;;;4.70;99.90;;;;;;4982427;28;20063;-91
2022/01/13 05:55:43;;;;;;;242.63;32.80;;;4.70;99.90;;;;;;5003396;28;20383;-90
2022/01/13 05:58:33;;;;;;;188.27;32.70;;;4.70;99.90;;;;;;4968781;28;20484;-90
2022/01/13 06:01:21;;;;;;;281.67;35.13;;;4.70;99.90;;;;;;5045039;27;20519;-92
2022/01/13 06:03:50;;;;;;;320.50;35.70;;;4.70;99.90;;;;;;5004851;28;20078;-91
2022/01/13 06:06:18;;;;;;;176.32;30.45;;;4.70;99.90;;;;;;5021593;28;20101;-94
2022/01/13 06:08:56;;;;;;;315.38;34.45;;;4.70;99.90;;;;;;5011083;28;20051;-92
2022/01/13 06:11:54;;;;;;;225.80;32.30;;;4.70;99.90;;;;;;5015908;28;20478;-93
2022/01/13 06:14:42;;;;;;;163.18;32.47;;;4.70;99.90;;;;;;5038287;28;20063;-94
2022/01/13 06:17:13;;;;;;;284.95;35.80;;;4.70;99.90;;;;;;5035306;28;20500;-90
2022/01/13 06:19:44;;;;;;;185.82;32.03;;;4.70;99.90;;;;;;5017149;28;20508;-93
2022/01/13 06:22:10;;;;;;;214.93;32.40;;;4.70;99.90;;;;;;5000614;28;20059;-90
2022/01/13 06:24:45;;;;;;;232.50;32.88;;;4.70;99.90;;;;;;5014913;28;21055;-90
2022/01/13 06:27:11;;;;;;;173.73;33.20;;;4.60;99.90;;;;;;5008020;28;20052;-93
2022/01/13 06:29:39;;;;;;;372.63;37.65;;;4.70;99.90;;;;;;5024879;28;20050;-91
2022/01/13 06:32:05;;;;;;;249.90;34.85;;;4.60;99.90;;;;;;5012937;28;20089;-93
2022/01/13 06:34:36;;;;;;;361.90;36.35;;;4.70;99.90;;;;;;5017310;28;20056;-93
2022/01/13 06:37:45;;;;;;;;;;;;;;;;;;;;;
2022/01/13 06:40:38;;;;;;;199.52;30.42;;;4.70;99.90;;;;;;5035161;28;20527;-93
2022/01/13 06:43:07;;;;;;;299.58;33.90;;;4.60;99.90;;;;;;5012812;28;20451;-92
2022/01/13 06:45:33;;;;;;;243.95;34.60;;;4.70;99.90;;;;;;5014984;28;20060;-92
2022/01/13 06:47:59;;;;;;;236.23;34.35;;;4.60;99.90;;;;;;5001528;28;20055;-92
2022/01/13 06:50:51;;;;;;;224.20;34.67;;;4.60;99.90;;;;;;5008834;28;20051;-92
2022/01/13 06:53:20;;;;;;;350.67;38.47;;;4.70;99.90;;;;;;5003264;28;20497;-90
2022/01/13 06:55:48;;;;;;;258.92;37.28;;;4.60;99.90;;;;;;5027210;28;20148;-91
2022/01/13 06:58:37;;;;;;;288.02;35.15;;;4.60;99.90;;;;;;5012728;28;20496;-91
2022/01/13 07:01:31;;;;;;;333.13;38.38;;;4.60;99.90;;;;;;5014823;28;20046;-93
2022/01/13 07:03:57;;;;;;;187.02;32.65;;;4.70;99.90;;;;;;4997362;28;21034;-89
2022/01/13 07:06:29;;;;;;;266.85;35.53;;;4.60;99.90;;;;;;5022721;28;20063;-93
2022/01/13 07:09:05;;;;;;;253.00;35.42;;;4.70;99.90;;;;;;4983650;28;20618;-91
2022/01/13 07:11:31;;;;;;;296.40;36.38;;;4.70;99.90;;;;;;5026562;28;20070;-90
2022/01/13 07:13:57;;;;;;;308.45;35.58;;;4.70;99.90;;;;;;5025598;28;20183;-92
2022/01/13 07:16:22;;;;;;;193.35;34.20;;;4.70;99.90;;;;;;5028266;28;20118;-93
2022/01/13 07:19:01;;;;;;;210.77;35.85;;;4.70;99.90;;;;;;5024222;28;20361;-91
2022/01/13 07:21:30;;;;;;;230.80;35.40;;;4.70;99.90;;;;;;5012421;28;20138;-91
2022/01/13 07:24:13;;;;;;;197.95;34.85;;;4.70;99.90;;;;;;4997837;28;20090;-95
2022/01/13 07:26:45;;;;;;;158.13;33.25;;;4.70;99.90;;;;;;5013188;28;20056;-94
2022/01/13 07:29:42;;;;;;;213.70;34.70;;;4.70;99.90;;;;;;5010234;28;20050;-93
2022/01/13 07:32:52;;;;;;;212.20;33.33;;;4.70;99.90;;;;;;5032470;28;20071;-93
2022/01/13 07:38:54;;;;;;;251.55;33.00;;;4.70;99.90;;;;;;4981226;28;20056;-95
2022/01/13 07:41:27;;;;;;;193.50;32.80;;;4.80;99.90;;;;;;4986757;28;20055;-93
2022/01/13 07:43:55;;;;;;;161.38;33.50;;;4.80;99.90;;;;;;5011639;28;20098;-92
2022/01/13 07:46:23;;;;;;;171.63;33.17;;;4.80;99.90;;;;;;5025061;28;20060;-92
2022/01/13 07:48:50;;;;;;;292.67;37.50;;;4.80;99.90;;;;;;5013415;28;20367;-91
2022/01/13 07:51:16;;;;;;;185.30;34.38;;;4.80;99.90;;;;;;5000043;28;20039;-92
2022/01/13 07:53:51;;;;;;;209.27;35.10;;;4.80;99.90;;;;;;5015412;28;20097;-91
2022/01/13 07:56:17;;;;;;;234.32;36.45;;;4.80;99.90;;;;;;5006232;28;20047;-89
2022/01/13 07:58:44;;;;;;;198.95;35.28;;;4.80;99.90;;;;;;5026909;28;20044;-91
2022/01/13 08:01:12;;;;;;;166.68;32.85;;;4.80;99.90;;;;;;4996693;28;20409;-90
2022/01/13 08:03:53;;;;;;;214.95;33.47;;;4.80;99.90;;;;;;5011772;28;20166;-93
2022/01/13 08:07:03;;;;;;;158.75;31.58;;;4.80;99.90;;;;;;5014783;28;20051;-91
2022/01/13 08:09:29;;;;;;;154.98;28.42;;;4.90;99.90;;;;;;4987398;28;20474;-91
2022/01/13 08:12:04;;;;;;;144.80;32.88;;;4.90;99.90;;;;;;5006025;28;20603;-92
2022/01/13 08:14:33;;;;;;;152.10;31.15;;;4.90;99.90;;;;;;5026186;28;20051;-92
2022/01/13 08:17:01;;;;;;;153.38;31.13;;;4.90;99.90;;;;;;5032330;28;20230;-89
2022/01/13 08:19:48;;;;;;;153.18;30.85;;;4.90;99.90;;;;;;4988186;28;20082;-90
2022/01/13 08:22:17;;;;;;;152.63;33.00;;;5.00;99.90;;;;;;5017566;28;20043;-92
2022/01/13 08:24:47;;;;;;;182.90;33.63;;;5.00;99.90;;;;;;5003858;28;20519;-91
2022/01/13 08:27:37;;;;;;;163.15;30.45;;;5.00;99.90;;;;;;4994989;28;20621;-91
2022/01/13 08:30:18;;;;;;;182.88;32.92;;;5.00;99.90;;;;;;5005238;28;20489;-94
2022/01/13 08:32:56;;;;;;;209.98;31.88;;;5.00;99.90;;;;;;5004137;28;20381;-93
2022/01/13 08:35:28;;;;;;;176.13;31.67;;;5.00;99.90;;;;;;5008693;28;20054;-90
2022/01/13 08:38:15;;;;;;;221.07;33.20;;;5.00;99.90;;;;;;5001101;28;20885;-92
2022/01/13 08:41:05;;;;;;;181.15;32.40;;;5.00;99.90;;;;;;5003051;28;20039;-94
2022/01/13 08:43:52;;;;;;;136.15;29.95;;;5.00;99.90;;;;;;5009565;28;20187;-95
2022/01/13 08:46:29;;;;;;;159.05;29.85;;;5.00;99.90;;;;;;5022833;28;20039;-93
2022/01/13 08:49:06;;;;;;;199.63;31.80;;;5.00;99.90;;;;;;5009791;28;20435;-94
2022/01/13 08:52:11;;;;;;;;;;;;;;;;;;;;;
2022/01/13 08:54:46;;;;;;;189.90;30.95;;;5.00;99.90;;;;;;5028242;28;20203;-93
2022/01/13 08:57:44;;;;;;;193.68;30.85;;;5.00;99.90;;;;;;5021979;28;20044;-93
2022/01/13 09:00:19;;;;;;;136.50;29.67;;;5.00;99.90;;;;;;5006168;28;20162;-93
2022/01/13 09:03:00;;;;;;;153.40;30.70;;;5.00;99.90;;;;;;5016063;28;20621;-95
2022/01/13 09:05:28;;;;;;;131.35;28.25;;;5.10;99.90;;;;;;5015161;28;20612;-92
2022/01/13 09:08:07;;;;;;;;;;;;;;;;;;;;;
2022/01/13 09:11:03;;;;;;;176.02;30.58;;;5.10;99.90;;;;;;4991325;28;20048;-92
2022/01/13 09:16:50;;;;;;;183.93;28.65;;;5.10;99.90;;;;;;4926845;28;20160;-93
2022/01/13 09:19:33;;;;;;;197.20;31.30;;;5.10;99.90;;;;;;5001429;28;20546;-94
2022/01/13 09:22:00;;;;;;;139.50;29.02;;;5.20;99.90;;;;;;5014027;28;20401;-91
2022/01/13 09:24:37;;;;;;;162.32;28.60;;;5.20;99.90;;;;;;5013684;28;20193;-94
2022/01/13 09:27:07;;;;;;;143.80;29.08;;;5.10;99.90;;;;;;5003090;28;20044;-91
2022/01/13 09:30:47;;;;;;;;;;;;;;;;;;;;;
2022/01/13 09:34:09;;;;;;;222.80;32.22;;;5.20;99.90;;;;;;5055511;28;20506;-93
2022/01/13 09:37:47;;;;;;;231.85;32.45;;;5.20;99.90;;;;;;4960968;28;20909;-93
2022/01/13 09:41:09;;;;;;;151.70;27.48;;;5.20;99.90;;;;;;4944049;28;20617;-92
2022/01/13 09:44:26;;;;;;;164.82;29.70;;;5.20;99.90;;;;;;4924037;28;20107;-93
2022/01/13 09:47:11;;;;;;;172.63;28.85;;;5.20;99.90;;;;;;4875894;28;20791;-94
2022/01/13 09:50:12;;;;;;;182.23;31.70;;;5.20;99.90;;;;;;4877987;28;20054;-92
2022/01/13 09:52:59;;;;;;;140.93;28.92;;;5.20;99.90;;;;;;4891618;28;20487;-93
2022/01/13 09:56:12;;;;;;;188.90;30.60;;;5.20;99.90;;;;;;4905815;28;20055;-94
2022/01/13 09:59:15;;;;;;;132.88;28.13;;;5.30;99.90;;;;;;4906200;28;20071;-93
2022/01/13 10:01:46;;;;;;;157.55;29.42;;;5.30;99.90;;;;;;4906566;28;20487;-93
2022/01/13 10:04:45;;;;;;;183.02;29.08;;;5.30;99.90;;;;;;4890645;28;20055;-92
2022/01/13 10:07:41;;;;;;;;;;;5.30;99.90;;;;;;4866438;29;20517;-93
2022/01/13 10:11:39;;;;;;;;;;;;;;;;;;;;;
2022/01/13 10:17:22;;;;;;;160.48;30.17;;;5.50;99.90;;;;;;4887765;28;20134;-90
2022/01/13 10:20:17;;;;;;;171.77;28.88;;;5.40;99.90;;;;;;5012910;28;20410;-95
2022/01/13 10:22:53;;;;;;;148.18;28.10;;;5.40;99.90;;;;;;5020196;28;20047;-91
2022/01/13 10:26:20;;;;;;;152.63;30.40;;;5.50;99.90;;;;;;5013923;28;20047;-92
2022/01/13 10:28:52;;;;;;;138.65;27.30;;;5.40;99.90;;;;;;4962958;28;20063;-94
2022/01/13 10:31:55;;;;;;;164.30;28.67;;;5.40;99.90;;;;;;5019876;28;20058;-92
2022/01/13 10:34:57;;;;;;;115.03;26.58;;;5.40;99.90;;;;;;5032534;28;20504;-88
2022/01/13 10:38:02;;;;;;;132.55;28.17;;;5.50;99.90;;;;;;5014753;28;20075;-92
2022/01/13 10:40:42;;;;;;;107.72;27.45;;;5.40;99.90;;;;;;4989769;28;20813;-91
2022/01/13 10:43:10;;;;;;;105.00;27.90;;;5.50;99.90;;;;;;5010250;28;20046;-90
2022/01/13 10:46:30;;;;;;;;;;;;;;;;;;;;;
2022/01/13 10:49:44;;;;;;;128.27;27.77;;;5.50;99.90;;;;;;5038584;28;20199;-94
2022/01/13 10:52:26;;;;;;;119.10;27.75;;;5.50;99.90;;;;;;4989128;28;20055;-93
2022/01/13 10:55:08;;;;;;;123.10;27.48;;;5.50;99.90;;;;;;5018085;28;20051;-94
2022/01/13 10:58:28;;;;;;;111.93;26.27;;;5.50;99.90;;;;;;5035299;28;20047;-94
2022/01/13 11:00:45;;;;;;;128.98;27.40;;;5.50;99.90;;;;;;5023016;28;20059;-93
2022/01/13 11:03:39;;;;;;;125.20;29.15;;;5.50;99.90;;;;;;5036182;28;20043;-92
2022/01/13 11:06:29;;;;;;;109.28;27.50;;;5.50;99.90;;;;;;5009592;28;20544;-92
2022/01/13 11:09:02;;;;;;;104.47;27.77;;;5.50;99.90;;;;;;5021860;28;20055;-94
2022/01/13 11:11:34;;;;;;;106.20;29.00;;;5.50;99.90;;;;;;5007428;28;20413;-89
2022/01/13 11:14:27;;;;;;;94.97;26.60;;;5.60;99.90;;;;;;5013324;28;20359;-92
2022/01/13 11:16:53;;;;;;;89.22;26.83;;;5.50;99.90;;;;;;5025925;28;20051;-94
2022/01/13 11:19:27;;;;;;;90.28;27.65;;;5.50;99.90;;;;;;4993888;28;20054;-90
2022/01/13 11:21:58;;;;;;;103.78;26.92;;;5.50;99.90;;;;;;5003812;28;20110;-91
2022/01/13 11:24:46;;;;;;;95.50;26.67;;;5.60;99.90;;;;;;5012566;28;20043;-91
2022/01/13 11:27:40;;;;;;;103.28;27.08;;;5.60;99.90;;;;;;5034266;28;21127;-93
2022/01/13 11:30:11;;;;;;;;;;;5.50;99.90;;;;;;5014809;28;20111;-91
2022/01/13 11:32:40;;;;;;;100.13;27.10;;;5.60;99.90;;;;;;5014831;28;20707;-93
2022/01/13 11:35:08;;;;;;;100.68;26.73;;;5.50;99.90;;;;;;5004581;28;21061;-90
2022/01/13 11:37:46;;;;;;;105.50;27.08;;;5.40;99.90;;;;;;5012975;28;20419;-94
2022/01/13 11:40:28;;;;;;;110.95;28.40;;;5.50;99.90;;;;;;5008579;28;20599;-95
2022/01/13 11:43:18;;;;;;;92.68;27.42;;;5.50;99.90;;;;;;5033135;28;20085;-94
2022/01/13 11:46:40;;;;;;;141.13;29.03;;;5.50;99.90;;;;;;5011488;28;20380;-93
2022/01/13 11:49:17;;;;;;;116.80;27.92;;;5.50;99.90;;;;;;4997556;28;20536;-93
2022/01/13 11:51:58;;;;;;;82.22;26.15;;;5.60;99.90;;;;;;5015180;28;20485;-90
2022/01/13 11:54:55;;;;;;;100.90;26.33;;;5.70;99.90;;;;;;5015036;28;20060;-93
2022/01/13 11:57:43;;;;;;;97.75;26.15;;;5.60;99.90;;;;;;5001915;28;20086;-93
2022/01/13 12:00:21;;;;;;;105.32;26.17;;;5.60;99.90;;;;;;5006488;28;20055;-94
2022/01/13 12:02:54;;;;;;;87.05;25.50;;;5.60;99.90;;;;;;5035044;28;20059;-91
2022/01/13 12:05:40;;;;;;;103.72;27.75;;;5.60;99.90;;;;;;5003349;28;20085;-94
2022/01/13 12:08:38;;;;;;;99.97;27.55;;;5.60;99.90;;;;;;5025472;28;20128;-94
2022/01/13 12:11:08;;;;;;;103.75;26.63;;;5.70;99.90;;;;;;5011155;28;20113;-90
2022/01/13 12:13:46;;;;;;;104.88;27.05;;;5.70;99.90;;;;;;4996144;28;20380;-92
2022/01/13 12:16:13;;;;;;;92.03;26.52;;;5.70;99.90;;;;;;5032637;28;20082;-93
2022/01/13 12:19:02;;;;;;;90.68;27.27;;;5.70;99.90;;;;;;5011275;28;20067;-93
2022/01/13 12:21:38;;;;;;;112.75;28.02;;;5.60;99.90;;;;;;5012103;28;20085;-94
2022/01/13 12:24:18;;;;;;;86.53;27.33;;;5.70;99.90;;;;;;5026204;28;20126;-93
2022/01/13 12:26:56;;;;;;;93.88;27.20;;;5.70;99.90;;;;;;5014230;28;20122;-94
2022/01/13 12:29:28;;;;;;;80.60;26.08;;;5.80;99.90;;;;;;5030825;28;21084;-93
2022/01/13 12:32:03;;;;;;;75.57;26.10;;;5.70;99.90;;;;;;5004517;28;20361;-91
2022/01/13 12:34:32;;;;;;;91.30;27.00;;;5.70;99.90;;;;;;5035402;28;20641;-91
2022/01/13 12:37:11;;;;;;;81.28;26.05;;;5.80;99.90;;;;;;5009554;28;20138;-92
2022/01/13 12:39:58;;;;;;;76.43;25.83;;;5.80;99.90;;;;;;5009391;28;20815;-92
2022/01/13 12:42:55;;;;;;;71.97;25.95;;;5.80;99.90;;;;;;5017291;28;20206;-91
2022/01/13 12:46:07;;;;;;;73.03;24.70;;;5.80;99.90;;;;;;5006246;28;20142;-95
2022/01/13 12:48:40;;;;;;;74.43;25.38;;;5.70;99.90;;;;;;5018951;28;20416;-91
2022/01/13 12:51:06;;;;;;;73.85;24.67;;;5.70;99.90;;;;;;5023687;28;20148;-92
2022/01/13 12:53:36;;;;;;;71.03;25.35;;;5.60;99.90;;;;;;5002973;28;20219;-95
2022/01/13 12:56:12;;;;;;;73.32;25.38;;;5.70;99.90;;;;;;5014497;28;20097;-91
2022/01/13 12:59:11;;;;;;;71.60;24.55;;;5.70;99.90;;;;;;5010655;28;20047;-93
2022/01/13 13:01:43;;;;;;;66.05;24.55;;;5.80;99.90;;;;;;5007841;28;20537;-94
2022/01/13 13:04:19;;;;;;;69.78;24.48;;;5.70;99.90;;;;;;4979483;28;20050;-95
2022/01/13 13:06:55;;;;;;;74.53;25.95;;;5.60;99.90;;;;;;5018883;28;20058;-96
2022/01/13 13:09:30;;;;;;;67.20;25.52;;;5.70;99.90;;;;;;4988067;28;20103;-92
2022/01/13 13:12:11;;;;;;;64.93;24.95;;;5.60;99.90;;;;;;5007573;28;20051;-94
2022/01/13 13:17:33;;;;;;;66.68;25.83;;;5.70;99.90;;;;;;5014993;28;20533;-94
2022/01/13 13:19:59;;;;;;;69.72;25.23;;;5.70;99.90;;;;;;5011294;28;20059;-92
2022/01/13 13:22:53;;;;;;;75.03;25.92;;;5.70;99.90;;;;;;4980117;28;20454;-93
2022/01/13 13:25:38;;;;;;;72.73;26.97;;;5.70;99.90;;;;;;4993986;28;20078;-92
2022/01/13 13:28:17;;;;;;;66.85;26.52;;;5.70;99.90;;;;;;5007114;28;20817;-91
2022/01/13 13:30:54;;;;;;;70.70;26.58;;;5.70;99.90;;;;;;4995790;28;20389;-92
2022/01/13 13:33:38;;;;;;;69.88;26.95;;;5.80;99.90;;;;;;4996916;28;20422;-92
2022/01/13 13:39:08;;;;;;;75.30;28.40;;;5.80;99.90;;;;;;4628357;27;13434743;-92
2022/01/13 13:42:09;;;;;;;75.78;28.65;;;5.80;99.90;;;;;;5075546;27;20111;-93
2022/01/13 13:44:57;;;;;;;74.82;27.15;;;5.80;99.90;;;;;;5075460;27;20351;-93
2022/01/13 13:51:25;;;;;;;67.07;28.45;;;5.90;99.90;;;;;;5030446;28;20040;-92
2022/01/13 13:54:18;;;;;;;71.43;28.65;;;5.90;99.90;;;;;;5014380;28;20047;-92
2022/01/13 13:57:19;;;;;;;76.80;27.90;;;5.90;99.90;;;;;;5038332;27;20046;-94
2022/01/13 14:00:09;;;;;;;73.38;28.80;;;5.90;99.90;;;;;;5065379;27;20039;-91
2022/01/13 14:02:58;;;;;;;75.72;28.15;;;5.90;99.90;;;;;;5054350;27;20123;-90
2022/01/13 14:12:02;;;;;;;65.03;27.92;;;5.90;99.90;;;;;;5040827;27;20211;-95
2022/01/13 14:14:41;;;;;;;68.55;27.02;;;5.90;99.90;;;;;;5041171;27;20044;-93
2022/01/13 14:17:36;;;;;;;73.22;29.73;;;5.90;99.90;;;;;;5031352;27;20100;-93
2022/01/13 14:20:20;;;;;;;69.03;28.70;;;5.90;99.90;;;;;;5037806;28;20469;-91
2022/01/13 14:23:47;;;;;;;70.30;27.98;;;5.90;99.90;;;;;;5035076;27;20236;-93
2022/01/13 14:26:22;;;;;;;71.97;28.05;;;5.90;99.90;;;;;;5050260;27;20217;-91
2022/01/13 14:28:57;;;;;;;68.95;28.48;;;5.90;99.90;;;;;;5034439;27;21020;-93
2022/01/13 14:31:59;;;;;;;70.20;27.80;;;5.90;99.90;;;;;;5035889;27;20715;-93
2022/01/13 14:35:03;;;;;;;64.43;27.02;;;5.90;99.90;;;;;;5036287;27;20160;-94
2022/01/13 14:37:38;;;;;;;69.63;27.52;;;5.90;99.90;;;;;;5033878;27;20062;-94
2022/01/13 14:40:17;;;;;;;76.55;28.67;;;5.90;99.90;;;;;;5024806;27;20335;-93
2022/01/13 14:43:15;;;;;;;69.38;27.98;;;5.90;99.90;;;;;;5042106;28;20048;-92
2022/01/13 14:46:18;;;;;;;77.82;29.20;;;5.90;99.90;;;;;;5018798;27;20399;-93
2022/01/13 14:48:45;;;;;;;79.70;29.15;;;5.90;99.90;;;;;;5042668;28;20504;-93
2022/01/13 14:51:27;;;;;;;82.75;29.42;;;5.90;99.90;;;;;;5014680;28;20052;-94
2022/01/13 14:54:12;;;;;;;74.68;29.10;;;5.90;99.90;;;;;;5029831;27;20056;-96
2022/01/13 14:57:08;;;;;;;75.32;29.50;;;6.00;99.90;;;;;;5023317;28;20139;-94
2022/01/13 15:00:09;;;;;;;80.75;30.58;;;5.90;99.90;;;;;;5024469;27;20039;-95
2022/01/13 15:02:48;;;;;;;76.68;28.05;;;5.90;99.90;;;;;;5032955;28;20075;-94
2022/01/13 15:05:26;;;;;;;73.68;28.52;;;5.90;99.90;;;;;;5014334;28;20046;-94
2022/01/13 15:07:52;;;;;;;71.45;28.98;;;5.80;99.90;;;;;;5020015;28;20380;-91
2022/01/13 15:10:49;;;;;;;;;;;;;;;;;;;;;
2022/01/13 15:13:17;;;;;;;75.18;30.40;;;5.80;99.90;;;;;;5051032;27;20043;-93
2022/01/13 15:16:27;;;;;;;;;;;;;;;;;;;;;
2022/01/13 15:19:28;;;;;;;81.40;29.40;;;5.80;99.90;;;;;;5041559;27;20059;-94
2022/01/13 15:21:57;;;;;;;84.93;29.65;;;5.80;99.90;;;;;;5021931;28;20126;-91
2022/01/13 15:24:31;;;;;;;76.28;29.60;;;5.80;99.90;;;;;;5035369;28;20048;-94
2022/01/13 15:27:26;;;;;;;86.90;31.20;;;5.80;99.90;;;;;;5006529;27;20248;-94
2022/01/13 15:29:55;;;;;;;83.93;30.65;;;5.80;99.90;;;;;;5026854;28;20039;-90
2022/01/13 15:32:25;;;;;;;90.60;31.55;;;5.80;99.90;;;;;;5023310;28;20086;-93
2022/01/13 15:34:52;;;;;;;88.28;32.17;;;5.80;99.90;;;;;;5020557;27;20417;-90
2022/01/13 15:37:50;;;;;;;;;;;;;;;;;;;;;
2022/01/13 15:41:00;;;;;;;90.88;32.67;;;5.80;99.90;;;;;;5030376;28;20424;-94
2022/01/13 15:43:48;;;;;;;92.30;32.55;;;5.70;99.90;;;;;;4986075;28;20412;-94
2022/01/13 15:50:41;;;;;;;101.70;32.40;;;5.80;99.90;;;;;;4961416;28;20063;-94
2022/01/13 15:53:34;;;;;;;93.28;33.00;;;5.80;99.90;;;;;;4997531;28;20040;-94
2022/01/13 15:56:09;;;;;;;96.10;32.17;;;5.80;99.90;;;;;;4975723;28;20084;-94
2022/01/13 15:58:41;;;;;;;95.90;33.53;;;5.80;99.90;;;;;;4993077;28;20049;-92
2022/01/13 16:01:29;;;;;;;;;;;;;;;;;;;;;
2022/01/13 16:07:39;;;;;;;92.40;34.33;;;5.80;99.90;;;;;;4956515;28;20099;-94
2022/01/13 16:10:09;;;;;;;97.68;34.90;;;5.80;99.90;;;;;;4957582;28;20049;-91
2022/01/13 16:18:49;;;;;;;91.43;34.25;;;5.90;99.90;;;;;;5009526;28;20063;-91
2022/01/13 16:21:39;;;;;;;89.82;35.10;;;6.00;99.90;;;;;;4997044;28;20116;-93
2022/01/13 16:24:10;;;;;;;96.05;35.50;;;6.00;99.90;;;;;;5031265;28;20109;-90
2022/01/13 16:26:36;;;;;;;94.10;37.28;;;6.00;99.90;;;;;;4993812;28;20584;-91
2022/01/13 16:29:04;;;;;;;91.30;36.88;;;6.10;99.90;;;;;;4980354;28;20064;-93
2022/01/13 16:34:25;;;;;;;89.50;37.00;;;6.10;99.90;;;;;;5004358;28;20052;-91
2022/01/13 16:36:57;;;;;;;93.53;37.15;;;6.10;99.90;;;;;;4992365;28;20057;-91
2022/01/13 16:39:44;;;;;;;88.60;36.70;;;6.10;99.90;;;;;;5011566;28;20060;-93
2022/01/13 16:45:39;;;;;;;97.00;38.08;;;6.10;99.90;;;;;;5032972;28;20351;-94
2022/01/13 16:48:08;;;;;;;91.15;36.92;;;6.20;99.90;;;;;;5030965;28;20055;-92
2022/01/13 16:50:47;;;;;;;90.95;37.55;;;6.20;99.90;;;;;;5013278;28;20417;-94
2022/01/13 16:53:55;;;;;;;;;;;;;;;;;;;;;
2022/01/13 16:56:44;;;;;;;97.70;36.63;;;6.20;99.90;;;;;;4980752;28;20067;-93
2022/01/13 16:59:19;;;;;;;98.57;37.60;;;6.20;99.90;;;;;;4997433;28;20349;-93
2022/01/13 17:01:45;;;;;;;85.65;37.42;;;6.20;99.90;;;;;;5002675;28;20389;-93
2022/01/13 17:04:20;;;;;;;88.15;36.70;;;6.20;99.90;;;;;;5000340;28;20142;-94
2022/01/13 17:07:21;;;;;;;93.57;38.05;;;6.20;99.90;;;;;;5008720;28;20488;-93